Time;durP1;ratioP1;P1;durP2;ratioP2;P2;SDS_P1;SDS_P2;PMS_P1;PMS_P2;Temp;Humidity;BMP_temperature;BMP_pressure;BME280_temperature;BME280_humidity;BME280_pressure;Samples;Min_cycle;Max_cycle;Signal;HPM_P1;HPM_P2
2022/04/22 00:02:22;;;;;;;25.87;14.50;;;6.50;99.90;;;;;;5092160;28;20203;-66
2022/04/22 00:04:48;;;;;;;26.77;15.37;;;6.50;99.90;;;;;;5092225;28;20200;-66
2022/04/22 00:07:15;;;;;;;25.17;15.33;;;6.50;99.90;;;;;;5092073;28;20560;-65
2022/04/22 00:09:42;;;;;;;26.37;14.77;;;6.50;99.90;;;;;;5092263;28;20259;-66
2022/04/22 00:12:10;;;;;;;23.37;14.50;;;6.60;99.90;;;;;;5092197;28;20310;-66
2022/04/22 00:14:38;;;;;;;23.67;14.57;;;6.50;99.90;;;;;;5091857;28;20210;-66
2022/04/22 00:17:05;;;;;;;25.50;15.03;;;6.50;99.90;;;;;;5092041;28;20210;-66
2022/04/22 00:19:32;;;;;;;27.13;15.63;;;6.60;99.90;;;;;;5091997;28;20690;-64
2022/04/22 00:21:59;;;;;;;24.07;15.30;;;6.50;99.90;;;;;;5091986;28;20200;-67
2022/04/22 00:24:26;;;;;;;26.07;15.57;;;6.50;99.90;;;;;;5092267;28;20691;-65
2022/04/22 00:26:53;;;;;;;26.73;15.77;;;6.50;99.90;;;;;;5091899;28;20199;-66
2022/04/22 00:29:19;;;;;;;28.37;15.93;;;6.40;99.90;;;;;;5093033;28;20220;-66
2022/04/22 00:31:48;;;;;;;24.63;14.67;;;6.50;99.90;;;;;;5096261;28;20200;-68
2022/04/22 00:34:15;;;;;;;23.83;14.20;;;6.50;99.90;;;;;;5096108;28;20216;-66
2022/04/22 00:36:41;;;;;;;21.53;12.60;;;6.50;99.90;;;;;;5096229;28;20204;-66
2022/04/22 00:39:08;;;;;;;20.23;12.17;;;6.50;99.90;;;;;;5095733;28;20200;-66
2022/04/22 00:41:35;;;;;;;21.17;12.40;;;6.50;99.90;;;;;;5096347;28;20214;-66
2022/04/22 00:44:02;;;;;;;19.13;11.90;;;6.50;99.90;;;;;;5095975;28;20613;-66
2022/04/22 00:46:29;;;;;;;20.47;12.43;;;6.50;99.90;;;;;;5096153;28;20554;-66
2022/04/22 00:48:57;;;;;;;19.87;12.67;;;6.50;99.90;;;;;;5095454;28;20240;-65
2022/04/22 00:51:24;;;;;;;21.57;12.23;;;6.50;99.90;;;;;;5095924;28;20274;-66
2022/04/22 00:53:53;;;;;;;19.40;11.60;;;6.50;99.90;;;;;;5095763;28;20210;-66
2022/04/22 00:56:20;;;;;;;19.93;12.37;;;6.50;99.90;;;;;;5095815;28;20665;-66
2022/04/22 00:58:50;;;;;;;19.23;11.67;;;6.50;99.90;;;;;;5095585;28;20199;-65
2022/04/22 01:01:17;;;;;;;21.20;12.43;;;6.50;99.90;;;;;;5096059;28;20208;-64
2022/04/22 01:09:47;;;;;;;22.47;13.60;;;6.50;99.90;;;;;;5095923;28;20673;-66
2022/04/22 01:12:05;;;;;;;19.73;11.80;;;6.50;99.90;;;;;;5095190;28;20649;-65
2022/04/22 01:14:33;;;;;;;20.43;12.20;;;6.40;99.90;;;;;;5095596;28;20299;-66
2022/04/22 01:17:01;;;;;;;18.63;11.23;;;6.40;99.90;;;;;;5095285;28;20200;-64
2022/04/22 01:19:28;;;;;;;16.27;10.53;;;6.40;99.90;;;;;;5095398;28;20219;-65
2022/04/22 01:21:56;;;;;;;18.93;11.23;;;6.40;99.90;;;;;;5095181;28;20215;-65
2022/04/22 01:24:23;;;;;;;17.63;10.93;;;6.40;99.90;;;;;;5095171;28;20208;-65
2022/04/22 01:26:50;;;;;;;17.23;10.27;;;6.30;99.90;;;;;;5094963;28;20208;-65
2022/04/22 01:29:18;;;;;;;16.93;9.80;;;6.30;99.90;;;;;;5095232;28;20235;-64
2022/04/22 01:31:45;;;;;;;15.77;9.97;;;6.30;99.90;;;;;;5095042;28;20340;-65
2022/04/22 01:34:12;;;;;;;16.17;10.33;;;6.30;99.90;;;;;;5094694;28;20215;-66
2022/04/22 01:36:39;;;;;;;14.73;10.10;;;6.30;99.90;;;;;;5094803;28;20203;-65
2022/04/22 01:39:08;;;;;;;16.43;10.93;;;6.20;99.90;;;;;;5094514;28;20222;-67
2022/04/22 01:41:35;;;;;;;16.33;10.77;;;6.30;99.90;;;;;;5094316;28;20219;-66
2022/04/22 01:44:01;;;;;;;18.57;11.07;;;6.20;99.90;;;;;;5094517;28;20573;-65
2022/04/22 01:46:28;;;;;;;18.30;11.90;;;6.20;99.90;;;;;;5094855;28;20210;-66
2022/04/22 01:48:55;;;;;;;18.70;11.97;;;6.20;99.90;;;;;;5094228;28;20243;-66
2022/04/22 01:51:22;;;;;;;17.37;11.20;;;6.10;99.90;;;;;;5094791;28;20206;-66
2022/04/22 01:53:49;;;;;;;21.33;12.43;;;6.20;99.90;;;;;;5094368;28;20206;-66
2022/04/22 01:56:17;;;;;;;18.00;11.53;;;6.10;99.90;;;;;;5094883;28;20207;-67
2022/04/22 01:58:43;;;;;;;19.50;11.57;;;6.20;99.90;;;;;;5094501;28;20204;-65
2022/04/22 02:01:11;;;;;;;18.50;11.50;;;6.20;99.90;;;;;;5094896;28;20305;-66
2022/04/22 02:03:38;;;;;;;20.13;11.07;;;6.20;99.90;;;;;;5094466;28;20288;-64
2022/04/22 02:06:05;;;;;;;22.73;12.13;;;6.20;99.90;;;;;;5094548;28;20211;-67
2022/04/22 02:08:32;;;;;;;18.87;11.53;;;6.10;99.90;;;;;;5094160;28;20208;-66
2022/04/22 02:10:59;;;;;;;20.30;12.47;;;6.10;99.90;;;;;;5094282;28;20693;-66
2022/04/22 02:13:27;;;;;;;20.73;12.67;;;6.10;99.90;;;;;;5094040;28;20220;-65
2022/04/22 02:15:54;;;;;;;20.87;12.80;;;6.10;99.90;;;;;;5094219;28;20222;-66
2022/04/22 02:18:20;;;;;;;20.77;12.70;;;6.10;99.90;;;;;;5094240;28;20224;-67
2022/04/22 02:20:47;;;;;;;20.87;13.07;;;6.10;99.90;;;;;;5094117;28;20222;-66
2022/04/22 02:23:14;;;;;;;23.47;13.10;;;6.00;99.90;;;;;;5093775;28;20381;-66
2022/04/22 02:25:41;;;;;;;22.50;14.23;;;6.10;99.90;;;;;;5093562;28;20208;-66
2022/04/22 02:30:53;;;;;;;26.00;14.57;;;6.10;99.90;;;;;;5093689;28;20231;-66
2022/04/22 02:33:20;;;;;;;25.23;14.27;;;6.10;99.90;;;;;;5094066;28;20203;-66
2022/04/22 02:35:47;;;;;;;25.70;15.27;;;6.10;99.90;;;;;;5093535;28;20645;-66
2022/04/22 02:38:13;;;;;;;23.33;14.57;;;6.10;99.90;;;;;;5093921;28;20568;-66
2022/04/22 02:46:10;;;;;;;27.13;15.63;;;6.10;99.90;;;;;;5093471;28;20225;-65
2022/04/22 02:48:36;;;;;;;24.23;14.87;;;6.10;99.90;;;;;;5093340;28;20232;-65
2022/04/22 02:51:03;;;;;;;25.80;15.37;;;6.10;99.90;;;;;;5093520;28;20231;-65
2022/04/22 02:53:30;;;;;;;25.03;16.23;;;6.10;99.90;;;;;;5092752;28;20677;-66
2022/04/22 02:55:58;;;;;;;25.30;15.43;;;6.20;99.90;;;;;;5093600;28;20204;-66
2022/04/22 02:58:25;;;;;;;26.63;16.10;;;6.20;99.90;;;;;;5093532;28;20654;-67
2022/04/22 03:00:52;;;;;;;24.87;15.60;;;6.20;99.90;;;;;;5093367;28;20211;-66
2022/04/22 03:03:20;;;;;;;25.77;16.10;;;6.20;99.90;;;;;;5093068;28;20208;-65
2022/04/22 03:05:47;;;;;;;26.00;16.13;;;6.20;99.90;;;;;;5093202;28;20458;-65
2022/04/22 03:08:14;;;;;;;27.60;16.77;;;6.20;99.90;;;;;;5093137;28;20210;-64
2022/04/22 03:10:41;;;;;;;25.37;16.87;;;6.20;99.90;;;;;;5093131;28;20224;-66
2022/04/22 03:13:08;;;;;;;25.93;16.40;;;6.20;99.90;;;;;;5092934;28;20204;-66
2022/04/22 03:15:38;;;;;;;27.63;17.43;;;6.20;99.90;;;;;;5093161;28;20206;-65
2022/04/22 03:18:05;;;;;;;25.30;17.03;;;6.30;99.90;;;;;;5093052;28;20315;-66
2022/04/22 03:20:33;;;;;;;23.37;16.03;;;6.30;99.90;;;;;;5092749;28;20200;-66
2022/04/22 03:23:00;;;;;;;25.77;16.30;;;6.30;99.90;;;;;;5093105;28;20292;-67
2022/04/22 03:25:27;;;;;;;29.03;18.17;;;6.30;99.90;;;;;;5092836;28;20215;-67
2022/04/22 03:27:53;;;;;;;27.20;17.67;;;6.30;99.90;;;;;;5092655;28;20214;-65
2022/04/22 03:30:20;;;;;;;29.50;18.77;;;6.30;99.90;;;;;;5092851;28;20674;-65
2022/04/22 03:32:47;;;;;;;26.80;17.37;;;6.30;99.90;;;;;;5092779;28;20226;-65
2022/04/22 03:35:14;;;;;;;28.03;18.23;;;6.30;99.90;;;;;;5092811;28;20203;-65
2022/04/22 03:37:42;;;;;;;29.27;17.70;;;6.30;99.90;;;;;;5092322;28;20219;-66
2022/04/22 03:40:10;;;;;;;28.53;18.40;;;6.30;99.90;;;;;;5092725;28;20196;-65
2022/04/22 03:42:37;;;;;;;28.37;18.53;;;6.40;99.90;;;;;;5092636;28;20237;-66
2022/04/22 03:45:05;;;;;;;28.80;19.40;;;6.40;99.90;;;;;;5092652;28;20207;-66
2022/04/22 03:47:32;;;;;;;28.10;18.70;;;6.40;99.90;;;;;;5092403;28;20207;-66
2022/04/22 03:49:59;;;;;;;29.10;18.67;;;6.40;99.90;;;;;;5091954;28;20236;-65
2022/04/22 03:52:26;;;;;;;29.77;19.83;;;6.40;99.90;;;;;;5090866;28;20236;-65
2022/04/22 03:54:54;;;;;;;28.07;18.93;;;6.50;99.90;;;;;;5092568;28;20542;-67
2022/04/22 04:00:06;;;;;;;29.27;19.43;;;6.50;99.90;;;;;;5092196;28;20314;-65
2022/04/22 04:02:35;;;;;;;28.77;19.33;;;6.50;99.90;;;;;;5092012;28;20247;-67
2022/04/22 04:05:02;;;;;;;25.87;17.70;;;6.50;99.90;;;;;;5092062;28;20216;-66
2022/04/22 04:07:29;;;;;;;26.60;18.10;;;6.60;99.90;;;;;;5092191;28;20676;-67
2022/04/22 04:18:12;;;;;;;26.23;17.27;;;6.60;99.90;;;;;;5091977;28;20223;-64
2022/04/22 04:23:23;;;;;;;26.27;18.07;;;6.60;99.90;;;;;;5091720;28;20657;-66
2022/04/22 04:25:51;;;;;;;27.43;18.67;;;6.60;99.90;;;;;;5091960;28;20559;-65
2022/04/22 04:28:18;;;;;;;29.70;19.53;;;6.70;99.90;;;;;;5091755;28;20215;-67
2022/04/22 04:30:46;;;;;;;26.33;17.80;;;6.70;99.90;;;;;;5091844;28;20713;-66
2022/04/22 04:33:13;;;;;;;29.17;18.97;;;6.70;99.90;;;;;;5091855;28;20207;-66
2022/04/22 04:35:44;;;;;;;29.10;18.20;;;6.70;99.90;;;;;;5091684;28;20299;-65
2022/04/22 04:38:11;;;;;;;28.33;17.97;;;6.80;99.90;;;;;;5091878;28;20184;-68
2022/04/22 04:40:38;;;;;;;27.17;18.47;;;6.80;99.90;;;;;;5091598;28;20200;-66
2022/04/22 04:43:06;;;;;;;29.03;18.30;;;6.80;99.90;;;;;;5091888;28;20200;-66
2022/04/22 04:45:33;;;;;;;26.47;17.10;;;6.80;99.90;;;;;;5091754;28;20200;-67
2022/04/22 04:48:00;;;;;;;26.87;17.70;;;6.80;99.90;;;;;;5091256;28;20270;-66
2022/04/22 04:50:27;;;;;;;27.93;17.67;;;6.90;99.90;;;;;;5091635;28;20235;-65
2022/04/22 04:52:54;;;;;;;25.47;17.50;;;6.90;99.90;;;;;;5091703;28;20541;-65
2022/04/22 04:55:21;;;;;;;24.63;17.13;;;6.90;99.90;;;;;;5091676;28;20204;-66
2022/04/22 04:57:48;;;;;;;22.77;16.47;;;6.90;99.90;;;;;;5092034;28;20225;-66
2022/04/22 05:00:18;;;;;;;25.13;16.63;;;6.90;99.90;;;;;;5091535;28;20201;-67
2022/04/22 05:02:45;;;;;;;23.50;16.03;;;6.90;99.90;;;;;;5091116;28;20204;-66
2022/04/22 05:05:12;;;;;;;24.83;16.87;;;7.00;99.90;;;;;;5091642;28;20215;-67
2022/04/22 05:07:48;;;;;;;25.90;17.57;;;7.10;99.90;;;;;;5091752;28;20208;-66
2022/04/22 05:10:16;;;;;;;27.60;17.83;;;7.00;99.90;;;;;;5091545;28;20207;-66
2022/04/22 05:12:43;;;;;;;28.60;18.73;;;7.10;99.90;;;;;;5091354;28;20223;-66
2022/04/22 05:15:10;;;;;;;29.97;20.23;;;7.10;99.90;;;;;;5092377;28;20204;-65
2022/04/22 05:17:40;;;;;;;33.20;20.40;;;7.10;99.90;;;;;;5095027;28;20235;-67
2022/04/22 05:20:09;;;;;;;28.50;19.00;;;7.10;99.90;;;;;;5095404;28;20204;-66
2022/04/22 05:22:36;;;;;;;32.17;20.43;;;7.10;99.90;;;;;;5094923;28;20218;-66
2022/04/22 05:25:04;;;;;;;31.00;20.20;;;7.20;99.90;;;;;;5094992;28;20214;-65
2022/04/22 05:27:31;;;;;;;32.83;21.20;;;7.20;99.90;;;;;;5095172;28;20212;-66
2022/04/22 05:32:47;;;;;;;31.23;21.60;;;7.20;99.90;;;;;;5095279;28;20715;-68
2022/04/22 05:35:15;;;;;;;33.10;21.27;;;7.20;99.90;;;;;;5094905;28;20246;-69
2022/04/22 05:37:47;;;;;;;30.43;21.13;;;7.20;99.90;;;;;;5095091;28;20215;-66
2022/04/22 05:40:15;;;;;;;35.97;22.07;;;7.20;99.90;;;;;;5094963;28;20592;-67
2022/04/22 05:42:42;;;;;;;36.10;22.57;;;7.30;99.90;;;;;;5094875;28;20684;-67
2022/04/22 05:45:10;;;;;;;33.83;21.60;;;7.30;99.90;;;;;;5094632;28;20212;-67
2022/04/22 05:47:37;;;;;;;34.60;21.73;;;7.30;99.90;;;;;;5094916;28;20204;-66
2022/04/22 05:50:07;;;;;;;33.80;21.47;;;7.30;99.90;;;;;;5094244;28;20331;-67
2022/04/22 05:52:35;;;;;;;34.73;21.17;;;7.30;99.90;;;;;;5094633;28;20622;-65
2022/04/22 05:55:03;;;;;;;32.67;21.30;;;7.30;99.90;;;;;;5094652;28;20572;-67
2022/04/22 05:57:31;;;;;;;32.97;21.37;;;7.40;99.90;;;;;;5094413;28;20204;-66
2022/04/22 05:59:58;;;;;;;35.60;21.83;;;7.30;99.90;;;;;;5094773;28;20208;-67
2022/04/22 06:02:25;;;;;;;35.23;21.97;;;7.40;99.90;;;;;;5094624;28;20583;-66
2022/04/22 06:04:52;;;;;;;35.60;22.40;;;7.40;99.90;;;;;;5094255;28;20228;-66
2022/04/22 06:07:21;;;;;;;34.20;21.60;;;7.40;99.90;;;;;;5092765;28;20224;-66
2022/04/22 06:12:32;;;;;;;36.43;22.90;;;7.50;99.90;;;;;;5092730;28;20215;-66
2022/04/22 06:15:01;;;;;;;31.90;21.53;;;7.50;99.90;;;;;;5093422;28;20207;-67
2022/04/22 06:17:30;;;;;;;34.90;23.20;;;7.50;99.90;;;;;;5092867;28;20212;-68
2022/04/22 06:19:58;;;;;;;39.13;24.50;;;7.50;99.90;;;;;;5093812;28;20256;-67
2022/04/22 06:22:27;;;;;;;40.27;24.90;;;7.60;99.90;;;;;;5093257;28;20638;-66
2022/04/22 06:24:54;;;;;;;39.00;25.17;;;7.60;99.90;;;;;;5093395;28;20224;-70
2022/04/22 06:27:28;;;;;;;45.43;26.30;;;7.60;99.90;;;;;;5090038;28;20196;-67
2022/04/22 06:29:56;;;;;;;39.30;23.93;;;7.60;99.90;;;;;;5089116;28;20188;-68
2022/04/22 06:32:26;;;;;;;40.30;24.40;;;7.60;99.90;;;;;;5093263;28;20228;-67
2022/04/22 06:34:53;;;;;;;36.33;23.57;;;7.70;99.90;;;;;;5094221;28;20204;-67
2022/04/22 06:37:21;;;;;;;40.90;24.43;;;7.70;99.90;;;;;;5093119;28;20200;-67
2022/04/22 06:48:11;;;;;;;36.23;24.27;;;7.80;99.90;;;;;;5080396;28;20208;-67
2022/04/22 06:50:38;;;;;;;36.47;23.53;;;7.80;99.90;;;;;;5091721;28;20193;-67
2022/04/22 06:53:05;;;;;;;36.67;23.53;;;7.80;99.90;;;;;;5093001;28;20208;-68
2022/04/22 06:55:34;;;;;;;36.33;22.87;;;7.80;99.90;;;;;;5093255;28;20707;-67
2022/04/22 06:58:02;;;;;;;38.60;24.23;;;7.90;99.90;;;;;;5093249;28;20257;-68
2022/04/22 07:00:29;;;;;;;35.77;23.10;;;7.90;99.90;;;;;;5093416;28;20243;-67
2022/04/22 07:02:56;;;;;;;37.13;23.80;;;7.90;99.90;;;;;;5093232;28;20207;-68
2022/04/22 07:05:24;;;;;;;37.30;23.73;;;7.90;99.90;;;;;;5093678;28;20208;-68
2022/04/22 07:07:51;;;;;;;38.37;23.97;;;8.00;99.90;;;;;;5093224;28;20220;-69
2022/04/22 07:10:19;;;;;;;40.33;25.93;;;8.00;99.90;;;;;;5093402;28;20208;-69
2022/04/22 07:12:47;;;;;;;39.53;23.93;;;8.00;99.90;;;;;;5092724;28;20224;-68
2022/04/22 07:15:14;;;;;;;34.07;23.37;;;8.00;99.90;;;;;;5092922;28;20200;-68
2022/04/22 07:17:42;;;;;;;37.87;23.87;;;8.10;99.90;;;;;;5093133;28;20600;-68
2022/04/22 07:20:10;;;;;;;39.80;24.97;;;8.10;99.90;;;;;;5093055;28;20727;-66
2022/04/22 07:22:39;;;;;;;37.30;23.73;;;8.10;99.90;;;;;;5092968;28;20666;-69
2022/04/22 07:25:07;;;;;;;36.60;23.90;;;8.20;99.90;;;;;;5092830;28;20208;-67
2022/04/22 07:27:35;;;;;;;39.77;23.60;;;8.20;99.90;;;;;;5092932;28;20666;-67
2022/04/22 07:30:05;;;;;;;39.33;24.27;;;8.20;99.90;;;;;;5092784;28;20215;-67
2022/04/22 07:32:33;;;;;;;37.17;23.57;;;8.30;99.90;;;;;;5092766;28;20391;-66
2022/04/22 07:35:00;;;;;;;37.93;24.53;;;8.30;99.90;;;;;;5092405;28;20204;-68
2022/04/22 07:37:27;;;;;;;34.40;23.10;;;8.30;99.90;;;;;;5092513;28;20227;-67
2022/04/22 07:39:54;;;;;;;38.13;24.07;;;8.40;99.90;;;;;;5092142;28;20240;-66
2022/04/22 07:42:22;;;;;;;35.93;23.60;;;8.40;99.90;;;;;;5092470;28;20207;-67
2022/04/22 07:47:37;;;;;;;38.83;23.47;;;8.50;99.90;;;;;;5092319;28;20614;-68
2022/04/22 07:50:06;;;;;;;41.33;25.10;;;8.50;99.90;;;;;;5091942;28;20247;-68
2022/04/22 07:52:33;;;;;;;40.93;25.20;;;8.50;99.90;;;;;;5092333;28;20295;-68
2022/04/22 07:55:00;;;;;;;39.93;24.20;;;8.50;99.90;;;;;;5092167;28;20228;-69
2022/04/22 07:57:27;;;;;;;41.17;25.30;;;8.60;99.90;;;;;;5092379;28;20204;-68
2022/04/22 07:59:54;;;;;;;40.80;24.87;;;8.60;99.90;;;;;;5091972;28;20569;-68
2022/04/22 08:02:22;;;;;;;37.53;23.77;;;8.50;99.90;;;;;;5092202;28;20196;-67
2022/04/22 08:04:50;;;;;;;36.60;22.80;;;8.50;99.90;;;;;;5091880;28;20217;-68
2022/04/22 08:07:18;;;;;;;36.53;23.70;;;8.60;99.90;;;;;;5092227;28;20203;-67
2022/04/22 08:09:46;;;;;;;38.90;23.77;;;8.60;99.90;;;;;;5092117;28;20246;-68
2022/04/22 08:12:13;;;;;;;36.77;23.53;;;8.60;99.90;;;;;;5091861;28;20447;-68
2022/04/22 08:14:40;;;;;;;35.00;22.83;;;8.70;99.90;;;;;;5091823;28;20204;-68
2022/04/22 08:17:07;;;;;;;39.67;24.23;;;8.70;99.90;;;;;;5091624;28;20218;-67
2022/04/22 08:19:34;;;;;;;33.90;22.53;;;8.70;99.90;;;;;;5092133;28;20214;-68
2022/04/22 08:22:02;;;;;;;36.53;23.67;;;8.80;99.90;;;;;;5091722;28;20208;-67
2022/04/22 08:24:29;;;;;;;37.40;23.43;;;8.80;99.90;;;;;;5092041;28;20568;-69
2022/04/22 08:26:57;;;;;;;37.60;23.97;;;8.80;99.90;;;;;;5091762;28;20235;-69
2022/04/22 08:29:24;;;;;;;39.00;24.53;;;8.70;99.90;;;;;;5092142;28;20272;-67
2022/04/22 08:31:52;;;;;;;38.23;24.00;;;8.70;99.90;;;;;;5091857;28;20231;-67
2022/04/22 08:34:19;;;;;;;36.00;22.97;;;8.70;99.90;;;;;;5092089;28;20203;-67
2022/04/22 08:36:47;;;;;;;38.13;23.90;;;8.70;99.90;;;;;;5091692;28;20587;-67
2022/04/22 08:39:16;;;;;;;35.27;23.10;;;8.70;99.90;;;;;;5091566;28;20630;-67
2022/04/22 08:41:43;;;;;;;37.70;24.00;;;8.70;99.90;;;;;;5091672;28;20204;-68
2022/04/22 08:44:14;;;;;;;40.30;24.70;;;8.70;99.90;;;;;;5091879;28;20564;-68
2022/04/22 08:52:13;;;;;;;45.07;27.17;;;8.80;99.90;;;;;;5077655;28;20216;-68
2022/04/22 08:54:45;;;;;;;43.00;26.97;;;8.80;99.90;;;;;;5095602;28;20223;-67
2022/04/22 08:57:12;;;;;;;39.60;26.23;;;8.80;99.90;;;;;;5095494;28;20208;-68
2022/04/22 08:59:40;;;;;;;39.90;25.23;;;8.80;99.90;;;;;;5095440;28;20206;-68
2022/04/22 09:02:07;;;;;;;39.63;23.73;;;8.80;99.90;;;;;;5095975;28;20200;-68
2022/04/22 09:04:34;;;;;;;36.97;23.87;;;8.90;99.90;;;;;;5095693;28;20204;-68
2022/04/22 09:07:02;;;;;;;36.10;23.57;;;8.90;99.90;;;;;;5095429;28;20222;-68
2022/04/22 09:09:29;;;;;;;37.30;22.93;;;8.90;99.90;;;;;;5095517;28;20204;-67
2022/04/22 09:12:12;;;;;;;37.93;23.27;;;8.90;99.90;;;;;;5095356;28;20235;-67
2022/04/22 09:14:45;;;;;;;35.23;22.40;;;8.90;99.90;;;;;;5095088;28;20184;-68
2022/04/22 09:17:15;;;;;;;38.23;22.87;;;9.00;99.90;;;;;;5095135;28;20229;-68
2022/04/22 09:19:44;;;;;;;35.77;22.77;;;8.90;99.90;;;;;;5094713;28;20204;-69
2022/04/22 09:22:11;;;;;;;34.63;22.10;;;8.90;99.90;;;;;;5095336;28;20196;-69
2022/04/22 09:24:47;;;;;;;37.07;22.57;;;8.80;99.90;;;;;;5094895;28;20204;-67
2022/04/22 09:27:16;;;;;;;36.43;22.57;;;8.80;99.90;;;;;;5095365;28;20184;-68
2022/04/22 09:29:44;;;;;;;36.17;22.37;;;8.90;99.90;;;;;;5094950;28;20215;-68
2022/04/22 09:32:12;;;;;;;38.47;22.97;;;8.90;99.90;;;;;;5095035;28;20253;-67
2022/04/22 09:34:42;;;;;;;36.43;21.97;;;9.00;99.90;;;;;;5094944;28;20560;-68
2022/04/22 09:42:53;;;;;;;36.67;22.67;;;9.10;99.90;;;;;;5094693;28;20553;-68
2022/04/22 09:45:20;;;;;;;37.50;23.30;;;9.20;99.90;;;;;;5094587;28;20234;-68
2022/04/22 09:48:00;;;;;;;37.63;22.93;;;9.20;99.90;;;;;;5094611;28;20215;-68
2022/04/22 09:50:43;;;;;;;36.80;22.53;;;9.30;99.90;;;;;;5094851;28;20227;-68
2022/04/22 09:53:11;;;;;;;35.50;22.90;;;9.30;99.90;;;;;;5094453;28;20215;-68
2022/04/22 09:55:53;;;;;;;39.43;23.57;;;9.30;99.90;;;;;;5094728;28;20224;-68
2022/04/22 09:58:28;;;;;;;35.63;22.80;;;9.30;99.90;;;;;;5094678;28;20295;-69
2022/04/22 10:01:00;;;;;;;39.83;23.67;;;9.20;99.90;;;;;;5094211;28;20665;-68
2022/04/22 10:03:29;;;;;;;34.83;21.57;;;9.30;99.90;;;;;;5094347;28;20220;-68
2022/04/22 10:05:58;;;;;;;38.00;23.80;;;9.30;99.90;;;;;;5094229;28;20261;-67
2022/04/22 10:08:28;;;;;;;37.30;23.37;;;9.30;99.90;;;;;;5094307;28;20204;-68
2022/04/22 10:10:58;;;;;;;35.93;23.03;;;9.30;99.90;;;;;;5094420;28;20208;-66
2022/04/22 10:13:35;;;;;;;38.07;23.87;;;9.30;99.90;;;;;;5093911;28;20211;-67
2022/04/22 10:16:03;;;;;;;38.60;23.67;;;9.30;99.90;;;;;;5094381;28;20196;-68
2022/04/22 10:18:31;;;;;;;38.63;23.07;;;9.40;99.90;;;;;;5093986;28;20204;-67
2022/04/22 10:20:59;;;;;;;37.07;22.93;;;9.50;99.90;;;;;;5094101;28;20250;-69
2022/04/22 10:23:27;;;;;;;34.27;21.80;;;9.50;99.90;;;;;;5094042;28;20219;-69
2022/04/22 10:25:54;;;;;;;38.00;22.57;;;9.40;99.90;;;;;;5094017;28;20568;-68
2022/04/22 10:28:21;;;;;;;37.93;22.63;;;9.40;99.90;;;;;;5094084;28;20203;-67
2022/04/22 10:30:52;;;;;;;36.57;22.60;;;9.40;99.90;;;;;;5093809;28;20200;-68
2022/04/22 10:33:24;;;;;;;38.93;22.90;;;9.50;99.90;;;;;;5093869;28;20692;-67
2022/04/22 10:35:57;;;;;;;37.63;23.43;;;9.50;99.90;;;;;;5093727;28;20192;-66
2022/04/22 10:38:28;;;;;;;35.57;23.23;;;9.50;99.90;;;;;;5093885;28;20573;-68
2022/04/22 10:40:55;;;;;;;34.50;22.17;;;9.60;99.90;;;;;;5093694;28;20207;-68
2022/04/22 10:43:23;;;;;;;34.40;22.40;;;9.70;99.90;;;;;;5093875;28;20662;-68
2022/04/22 10:48:39;;;;;;;38.90;23.27;;;9.80;99.90;;;;;;5093655;28;20700;-67
2022/04/22 10:51:09;;;;;;;38.33;23.40;;;9.80;99.90;;;;;;5093552;28;20214;-68
2022/04/22 10:53:45;;;;;;;37.27;23.50;;;9.80;99.90;;;;;;5093044;28;20229;-68
2022/04/22 10:56:33;;;;;;;36.40;22.53;;;9.90;99.90;;;;;;5093529;28;20610;-67
2022/04/22 10:59:27;;;;;;;35.70;22.60;;;9.90;99.90;;;;;;5093194;28;20227;-69
2022/04/22 11:01:56;;;;;;;33.70;22.50;;;10.00;99.90;;;;;;5093552;28;20200;-67
2022/04/22 11:04:28;;;;;;;35.70;22.47;;;10.10;99.90;;;;;;5093164;28;20246;-69
2022/04/22 11:06:56;;;;;;;33.77;21.87;;;10.10;99.90;;;;;;5093314;28;20274;-69
2022/04/22 11:09:27;;;;;;;38.07;23.83;;;10.10;99.90;;;;;;5093358;28;20207;-68
2022/04/22 11:11:54;;;;;;;36.17;22.43;;;10.10;99.90;;;;;;5092860;28;20204;-68
2022/04/22 11:14:23;;;;;;;33.17;21.27;;;10.10;99.90;;;;;;5092413;28;20234;-68
2022/04/22 11:16:50;;;;;;;35.53;22.10;;;10.10;99.90;;;;;;5093055;28;20709;-69
2022/04/22 11:19:37;;;;;;;34.43;21.60;;;10.10;99.90;;;;;;5093017;28;20200;-68
2022/04/22 11:22:07;;;;;;;32.80;21.70;;;10.10;99.90;;;;;;5092945;28;20185;-69
2022/04/22 11:24:34;;;;;;;33.07;21.23;;;10.10;99.90;;;;;;5092839;28;20260;-68
2022/04/22 11:27:06;;;;;;;33.80;21.47;;;10.10;99.90;;;;;;5092876;28;20581;-67
2022/04/22 11:29:33;;;;;;;33.93;22.33;;;10.20;99.90;;;;;;5092266;28;20307;-69
2022/04/22 11:32:05;;;;;;;33.60;22.00;;;10.20;99.90;;;;;;5092508;28;20215;-68
2022/04/22 11:35:08;;;;;;;32.43;20.03;;;10.30;99.90;;;;;;5092666;28;20231;-68
2022/04/22 11:37:37;;;;;;;31.13;20.87;;;10.40;99.90;;;;;;5059736;28;20208;-69
2022/04/22 11:40:05;;;;;;;30.57;19.73;;;10.30;99.90;;;;;;5092725;28;20610;-68
2022/04/22 11:42:38;;;;;;;30.33;20.07;;;10.40;99.90;;;;;;5092207;28;20241;-68
2022/04/22 11:45:06;;;;;;;29.10;20.00;;;10.40;99.90;;;;;;5092748;28;20196;-68
2022/04/22 11:47:33;;;;;;;33.33;20.83;;;10.40;99.90;;;;;;5092496;28;20230;-68
2022/04/22 11:50:00;;;;;;;33.10;22.10;;;10.40;99.90;;;;;;5092156;28;20558;-68
2022/04/22 11:52:30;;;;;;;31.30;20.67;;;10.40;99.90;;;;;;5092140;28;20708;-68
2022/04/22 11:55:00;;;;;;;29.37;19.83;;;10.40;99.90;;;;;;5092497;28;20220;-69
2022/04/22 11:57:29;;;;;;;30.57;20.37;;;10.50;99.90;;;;;;5092630;28;20195;-69
2022/04/22 12:05:36;;;;;;;28.80;19.43;;;10.50;99.90;;;;;;5092042;28;20225;-68
2022/04/22 12:08:10;;;;;;;33.10;20.97;;;10.40;99.90;;;;;;5092257;28;20651;-68
2022/04/22 12:10:38;;;;;;;32.90;20.10;;;10.50;99.90;;;;;;5092206;28;20264;-68
2022/04/22 12:13:06;;;;;;;30.40;20.07;;;10.50;99.90;;;;;;5092102;28;20230;-69
2022/04/22 12:15:39;;;;;;;30.77;20.73;;;10.50;99.90;;;;;;5092043;28;20305;-68
2022/04/22 12:18:06;;;;;;;32.20;20.80;;;10.50;99.90;;;;;;5091870;28;20192;-68
2022/04/22 12:20:33;;;;;;;30.07;20.83;;;10.60;99.90;;;;;;5092175;28;20230;-68
2022/04/22 12:23:00;;;;;;;32.10;20.43;;;10.60;99.90;;;;;;5092053;28;20202;-67
2022/04/22 12:25:28;;;;;;;31.67;20.17;;;10.60;99.90;;;;;;5091859;28;20665;-68
2022/04/22 12:28:09;;;;;;;32.10;21.37;;;10.60;99.90;;;;;;5092140;28;20669;-68
2022/04/22 12:30:37;;;;;;;29.47;19.57;;;10.60;99.90;;;;;;5092397;28;20212;-68
2022/04/22 12:33:05;;;;;;;31.87;21.27;;;10.60;99.90;;;;;;5091980;28;20223;-68
2022/04/22 12:35:32;;;;;;;30.60;21.10;;;10.60;99.90;;;;;;5091931;28;20633;-68
2022/04/22 12:38:05;;;;;;;34.37;22.23;;;10.60;99.90;;;;;;5091865;28;20204;-69
2022/04/22 12:40:48;;;;;;;31.57;21.23;;;10.60;99.90;;;;;;5091710;28;20204;-68
2022/04/22 12:43:22;;;;;;;30.73;20.43;;;10.60;99.90;;;;;;5091687;28;20220;-70
2022/04/22 12:54:12;;;;;;;30.17;20.50;;;10.70;99.90;;;;;;5091580;28;20254;-67
2022/04/22 12:56:41;;;;;;;30.20;21.03;;;10.60;99.90;;;;;;5091542;28;20239;-70
2022/04/22 12:59:07;;;;;;;27.77;20.13;;;10.60;99.90;;;;;;5091835;28;20226;-68
2022/04/22 13:01:37;;;;;;;32.30;20.73;;;10.70;99.90;;;;;;5091637;28;20664;-68
2022/04/22 13:04:05;;;;;;;31.37;20.57;;;10.60;99.90;;;;;;5091814;28;20206;-68
2022/04/22 13:06:40;;;;;;;33.03;21.50;;;10.70;99.90;;;;;;5091170;28;20200;-69
2022/04/22 13:09:09;;;;;;;30.30;20.50;;;10.60;99.90;;;;;;5091776;28;20718;-68
2022/04/22 13:11:36;;;;;;;32.90;20.67;;;10.60;99.90;;;;;;5091488;28;20212;-68
2022/04/22 13:14:06;;;;;;;30.87;20.07;;;10.60;99.90;;;;;;5091240;28;20235;-69
2022/04/22 13:16:33;;;;;;;27.37;19.80;;;10.60;99.90;;;;;;5091608;28;20717;-68
2022/04/22 13:19:01;;;;;;;27.43;19.37;;;10.60;99.90;;;;;;5091847;28;20653;-68
2022/04/22 13:21:28;;;;;;;30.57;20.47;;;10.70;99.90;;;;;;5091428;28;20204;-68
2022/04/22 13:23:55;;;;;;;27.97;20.00;;;10.70;99.90;;;;;;5091722;28;20238;-68
2022/04/22 13:26:23;;;;;;;30.07;19.00;;;10.70;99.90;;;;;;5091204;28;20208;-68
2022/04/22 13:28:50;;;;;;;27.40;19.77;;;10.70;99.90;;;;;;5091491;28;20784;-67
2022/04/22 13:31:18;;;;;;;26.93;18.77;;;10.70;99.90;;;;;;5091265;28;20211;-68
2022/04/22 13:33:45;;;;;;;26.50;19.33;;;10.70;99.90;;;;;;5091088;28;20219;-68
2022/04/22 13:36:13;;;;;;;29.03;19.07;;;10.70;99.90;;;;;;5091965;28;20208;-68
2022/04/22 13:38:39;;;;;;;28.53;18.90;;;10.80;99.90;;;;;;5095086;28;20663;-69
2022/04/22 13:41:06;;;;;;;25.93;18.60;;;10.80;99.90;;;;;;5095029;28;20204;-69
2022/04/22 13:43:35;;;;;;;25.57;18.93;;;10.90;99.90;;;;;;5094703;28;20235;-67
2022/04/22 13:54:19;;;;;;;28.53;18.97;;;11.10;99.90;;;;;;5094603;28;20222;-68
2022/04/22 13:56:46;;;;;;;24.50;17.97;;;11.10;99.90;;;;;;5094609;28;20218;-68
2022/04/22 13:59:12;;;;;;;26.33;18.80;;;11.20;99.90;;;;;;5094597;28;20204;-69
2022/04/22 14:01:39;;;;;;;23.20;17.47;;;11.20;99.90;;;;;;5094935;28;20226;-70
2022/04/22 14:04:08;;;;;;;24.43;17.63;;;11.20;99.90;;;;;;5094069;28;20235;-69